BLUE7 KHOU-KLAL
Flight info
| Callsign | BLUE7 |
|---|---|
| Flight time | 1h 40m |
| Altitude | 41000 |
| Route | ELOCO6 LLA LEV Y290 REDFN CHRGE RAYZZ3 |
| Aircraft | C750/M-VGDW/C |
Departure
| Time | 2026-04-26 21:14 |
|---|---|
| Airport | William P. Hobby Airport (KHOU) |
Arrival
| Time | 2026-04-26 22:55 |
|---|---|
| Airport | Lakeland Linder International Airport (KLAL) |
| Time | Latitude | Longitude | Altitude | Speed | Heading |
|---|---|---|---|---|---|
| 2026-04-26 21:01 | 29.64284 | -95.28651 | 45 ft | 0 kts | 180° |
| 2026-04-26 21:08 | 29.64283 | -95.28651 | 45 ft | 2 kts | 172° |
| 2026-04-26 21:08 | 29.64257 | -95.28571 | 45 ft | 20 kts | 89° |
| 2026-04-26 21:09 | 29.64318 | -95.28544 | 45 ft | 13 kts | 355° |
| 2026-04-26 21:09 | 29.64464 | -95.28554 | 45 ft | 28 kts | 3° |
| 2026-04-26 21:09 | 29.64605 | -95.28539 | 45 ft | 11 kts | 163° |
| 2026-04-26 21:09 | 29.64506 | -95.28549 | 45 ft | 25 kts | 184° |
| 2026-04-26 21:10 | 29.64294 | -95.28543 | 45 ft | 31 kts | 175° |
| 2026-04-26 21:10 | 29.64259 | -95.28461 | 45 ft | 18 kts | 41° |
| 2026-04-26 21:10 | 29.64378 | -95.28341 | 45 ft | 27 kts | 44° |
| 2026-04-26 21:10 | 29.64538 | -95.28169 | 45 ft | 35 kts | 46° |
| 2026-04-26 21:11 | 29.64682 | -95.28010 | 45 ft | 29 kts | 46° |
| 2026-04-26 21:11 | 29.64844 | -95.27821 | 45 ft | 36 kts | 43° |
| 2026-04-26 21:11 | 29.64998 | -95.27605 | 45 ft | 34 kts | 51° |
| 2026-04-26 21:11 | 29.65113 | -95.27478 | 45 ft | 22 kts | 85° |
| 2026-04-26 21:12 | 29.65173 | -95.27319 | 44 ft | 21 kts | 39° |
| 2026-04-26 21:12 | 29.65286 | -95.27195 | 44 ft | 22 kts | 41° |
| 2026-04-26 21:12 | 29.65403 | -95.27071 | 43 ft | 23 kts | 46° |
| 2026-04-26 21:12 | 29.65473 | -95.26971 | 41 ft | 5 kts | 85° |
| 2026-04-26 21:13 | 29.65473 | -95.26952 | 42 ft | 0 kts | 91° |
| 2026-04-26 21:13 | 29.65473 | -95.26951 | 42 ft | 0 kts | 93° |
| 2026-04-26 21:13 | 29.65469 | -95.26932 | 41 ft | 4 kts | 112° |
| 2026-04-26 21:13 | 29.65429 | -95.26902 | 41 ft | 12 kts | 148° |
| 2026-04-26 21:14 | 29.65352 | -95.26937 | 42 ft | 36 kts | 229° |
| 2026-04-26 21:14 | 29.64917 | -95.27441 | 43 ft | 134 kts | 220° |
| 2026-04-26 21:14 | 29.64043 | -95.28236 | 413 ft | 180 kts | 209° |
| 2026-04-26 21:14 | 29.62861 | -95.28783 | 1360 ft | 193 kts | 181° |
| 2026-04-26 21:15 | 29.61615 | -95.28387 | 2141 ft | 198 kts | 142° |
| 2026-04-26 21:15 | 29.60597 | -95.27220 | 2734 ft | 217 kts | 131° |
| 2026-04-26 21:15 | 29.59729 | -95.25916 | 3922 ft | 201 kts | 128° |
| 2026-04-26 21:15 | 29.58899 | -95.24577 | 4485 ft | 218 kts | 126° |
| 2026-04-26 21:16 | 29.58336 | -95.22945 | 5324 ft | 234 kts | 97° |
| 2026-04-26 21:16 | 29.58395 | -95.21142 | 6619 ft | 236 kts | 83° |
| 2026-04-26 21:16 | 29.58723 | -95.19150 | 7260 ft | 260 kts | 77° |
| 2026-04-26 21:16 | 29.59114 | -95.17212 | 8209 ft | 256 kts | 80° |
| 2026-04-26 21:17 | 29.59468 | -95.15161 | 8867 ft | 264 kts | 76° |
| 2026-04-26 21:17 | 29.59844 | -95.13184 | 9734 ft | 253 kts | 79° |
| 2026-04-26 21:17 | 29.60087 | -95.11176 | 10339 ft | 254 kts | 82° |
| 2026-04-26 21:17 | 29.60329 | -95.09126 | 10736 ft | 263 kts | 77° |
| 2026-04-26 21:18 | 29.60722 | -95.07124 | 11483 ft | 256 kts | 78° |
| 2026-04-26 21:18 | 29.61043 | -95.05101 | 12207 ft | 267 kts | 78° |
| 2026-04-26 21:18 | 29.61389 | -95.02963 | 12939 ft | 285 kts | 77° |
| 2026-04-26 21:18 | 29.61764 | -95.00615 | 13415 ft | 313 kts | 78° |
| 2026-04-26 21:19 | 29.62164 | -94.98085 | 13906 ft | 339 kts | 78° |
| 2026-04-26 21:19 | 29.62597 | -94.95325 | 14505 ft | 360 kts | 78° |
| 2026-04-26 21:19 | 29.63049 | -94.92443 | 15340 ft | 372 kts | 77° |
| 2026-04-26 21:19 | 29.63509 | -94.89520 | 16277 ft | 380 kts | 77° |
| 2026-04-26 21:20 | 29.63979 | -94.86538 | 17263 ft | 385 kts | 77° |
| 2026-04-26 21:20 | 29.64454 | -94.83510 | 18161 ft | 392 kts | 77° |
| 2026-04-26 21:20 | 29.64940 | -94.80411 | 19004 ft | 399 kts | 77° |
| 2026-04-26 21:20 | 29.65431 | -94.77265 | 19870 ft | 405 kts | 77° |
| 2026-04-26 21:21 | 29.65930 | -94.74068 | 20660 ft | 411 kts | 76° |
| 2026-04-26 21:21 | 29.66435 | -94.70838 | 21432 ft | 418 kts | 76° |
| 2026-04-26 21:21 | 29.66947 | -94.67555 | 22218 ft | 423 kts | 76° |
| 2026-04-26 21:21 | 29.67469 | -94.64200 | 22948 ft | 429 kts | 76° |
| 2026-04-26 21:22 | 29.67997 | -94.60816 | 23650 ft | 436 kts | 76° |
| 2026-04-26 21:22 | 29.68533 | -94.57361 | 24383 ft | 441 kts | 76° |
| 2026-04-26 21:22 | 29.69071 | -94.53874 | 25055 ft | 446 kts | 76° |
| 2026-04-26 21:23 | 29.70165 | -94.46783 | 26345 ft | 457 kts | 76° |
| 2026-04-26 21:23 | 29.70703 | -94.43208 | 26979 ft | 462 kts | 77° |
| 2026-04-26 21:23 | 29.71269 | -94.39576 | 27602 ft | 466 kts | 76° |
| 2026-04-26 21:23 | 29.71835 | -94.35845 | 28200 ft | 472 kts | 78° |
| 2026-04-26 21:24 | 29.71868 | -94.32039 | 28693 ft | 482 kts | 96° |
| 2026-04-26 21:24 | 29.71428 | -94.28229 | 29282 ft | 486 kts | 96° |
| 2026-04-26 21:24 | 29.70992 | -94.24384 | 29777 ft | 491 kts | 96° |
| 2026-04-26 21:24 | 29.70545 | -94.20445 | 30246 ft | 497 kts | 96° |
| 2026-04-26 21:25 | 29.70100 | -94.16519 | 30741 ft | 502 kts | 96° |
| 2026-04-26 21:25 | 29.69655 | -94.12523 | 31209 ft | 507 kts | 95° |
| 2026-04-26 21:25 | 29.69201 | -94.08508 | 31693 ft | 511 kts | 96° |
| 2026-04-26 21:25 | 29.68755 | -94.04476 | 32089 ft | 517 kts | 94° |
| 2026-04-26 21:26 | 29.68605 | -94.00357 | 32493 ft | 520 kts | 86° |
| 2026-04-26 21:26 | 29.68598 | -93.96181 | 32897 ft | 525 kts | 88° |
| 2026-04-26 21:26 | 29.68567 | -93.91969 | 33436 ft | 527 kts | 87° |
| 2026-04-26 21:26 | 29.68533 | -93.87772 | 34008 ft | 526 kts | 87° |
| 2026-04-26 21:27 | 29.68498 | -93.83623 | 34509 ft | 525 kts | 87° |
| 2026-04-26 21:27 | 29.68458 | -93.79428 | 34958 ft | 525 kts | 87° |
| 2026-04-26 21:27 | 29.68413 | -93.75249 | 35443 ft | 524 kts | 86° |
| 2026-04-26 21:27 | 29.68376 | -93.71085 | 35867 ft | 523 kts | 86° |
| 2026-04-26 21:28 | 29.68332 | -93.66942 | 36263 ft | 524 kts | 86° |
| 2026-04-26 21:28 | 29.68288 | -93.62751 | 36666 ft | 524 kts | 86° |
| 2026-04-26 21:28 | 29.68240 | -93.58572 | 37001 ft | 525 kts | 86° |
| 2026-04-26 21:28 | 29.68194 | -93.54398 | 37351 ft | 525 kts | 86° |
| 2026-04-26 21:29 | 29.68143 | -93.50189 | 37699 ft | 526 kts | 86° |
| 2026-04-26 21:29 | 29.68098 | -93.46043 | 38040 ft | 526 kts | 86° |
| 2026-04-26 21:29 | 29.68042 | -93.41831 | 38397 ft | 526 kts | 86° |
| 2026-04-26 21:29 | 29.67990 | -93.37671 | 38708 ft | 527 kts | 86° |
| 2026-04-26 21:30 | 29.67937 | -93.33468 | 39006 ft | 527 kts | 86° |
| 2026-04-26 21:30 | 29.67878 | -93.29256 | 39383 ft | 525 kts | 86° |
| 2026-04-26 21:30 | 29.67823 | -93.25050 | 39796 ft | 523 kts | 86° |
| 2026-04-26 21:30 | 29.67766 | -93.20923 | 40123 ft | 522 kts | 86° |
| 2026-04-26 21:31 | 29.67709 | -93.16786 | 40408 ft | 522 kts | 86° |
| 2026-04-26 21:31 | 29.67650 | -93.12619 | 40705 ft | 521 kts | 87° |
| 2026-04-26 21:31 | 29.67588 | -93.08463 | 40852 ft | 525 kts | 87° |
| 2026-04-26 21:31 | 29.67519 | -93.04278 | 40869 ft | 529 kts | 87° |
| 2026-04-26 21:32 | 29.67386 | -92.95720 | 40866 ft | 540 kts | 86° |
| 2026-04-26 21:32 | 29.67247 | -92.87022 | 40874 ft | 551 kts | 87° |
| 2026-04-26 21:33 | 29.67096 | -92.78198 | 40876 ft | 561 kts | 86° |
| 2026-04-26 21:33 | 29.66938 | -92.69204 | 40887 ft | 570 kts | 87° |
| 2026-04-26 21:34 | 29.66765 | -92.60011 | 40877 ft | 579 kts | 87° |
| 2026-04-26 21:34 | 29.66589 | -92.50735 | 40876 ft | 586 kts | 87° |
| 2026-04-26 21:35 | 29.66406 | -92.41376 | 40887 ft | 589 kts | 87° |
| 2026-04-26 21:35 | 29.65236 | -92.32096 | 40926 ft | 594 kts | 101° |
| 2026-04-26 21:36 | 29.63646 | -92.24374 | 40870 ft | 596 kts | 101° |
| 2026-04-26 21:36 | 29.61416 | -92.13618 | 40881 ft | 596 kts | 101° |
| 2026-04-26 21:37 | 29.59493 | -92.04366 | 40885 ft | 596 kts | 101° |
| 2026-04-26 21:37 | 29.57563 | -91.95122 | 40880 ft | 596 kts | 101° |
| 2026-04-26 21:38 | 29.55650 | -91.85967 | 40890 ft | 595 kts | 101° |
| 2026-04-26 21:38 | 29.53710 | -91.76756 | 40891 ft | 596 kts | 101° |
| 2026-04-26 21:39 | 29.51758 | -91.67504 | 40886 ft | 596 kts | 101° |
| 2026-04-26 21:39 | 29.49815 | -91.58320 | 40896 ft | 595 kts | 101° |
| 2026-04-26 21:40 | 29.47859 | -91.49112 | 40895 ft | 596 kts | 101° |
| 2026-04-26 21:40 | 29.45899 | -91.39922 | 40900 ft | 596 kts | 101° |
| 2026-04-26 21:41 | 29.43921 | -91.30697 | 40883 ft | 595 kts | 102° |
| 2026-04-26 21:41 | 29.41960 | -91.21564 | 40897 ft | 594 kts | 101° |
| 2026-04-26 21:42 | 29.39982 | -91.12377 | 40896 ft | 594 kts | 101° |
| 2026-04-26 21:42 | 29.37989 | -91.03167 | 40902 ft | 594 kts | 102° |
| 2026-04-26 21:43 | 29.36004 | -90.94028 | 40906 ft | 594 kts | 101° |
| 2026-04-26 21:43 | 29.34018 | -90.84910 | 40905 ft | 594 kts | 101° |
| 2026-04-26 21:44 | 29.32009 | -90.75736 | 40914 ft | 594 kts | 101° |
| 2026-04-26 21:44 | 29.30015 | -90.66625 | 40914 ft | 595 kts | 101° |
| 2026-04-26 21:45 | 29.27995 | -90.57461 | 40917 ft | 595 kts | 101° |
| 2026-04-26 21:45 | 29.25967 | -90.48277 | 40916 ft | 595 kts | 101° |
| 2026-04-26 21:46 | 29.23949 | -90.39172 | 40908 ft | 595 kts | 101° |
| 2026-04-26 21:46 | 29.21910 | -90.30020 | 40890 ft | 595 kts | 102° |
| 2026-04-26 21:47 | 29.19863 | -90.20852 | 40905 ft | 594 kts | 102° |
| 2026-04-26 21:47 | 29.17823 | -90.11730 | 40902 ft | 595 kts | 102° |
| 2026-04-26 21:48 | 29.15752 | -90.02621 | 40916 ft | 588 kts | 94° |
| 2026-04-26 21:48 | 29.14068 | -89.93437 | 40912 ft | 592 kts | 99° |
| 2026-04-26 21:49 | 29.12213 | -89.84333 | 40901 ft | 593 kts | 100° |
| 2026-04-26 21:49 | 29.10330 | -89.75161 | 40915 ft | 593 kts | 100° |
| 2026-04-26 21:50 | 29.08759 | -89.67534 | 40912 ft | 593 kts | 100° |
| 2026-04-26 21:50 | 29.06560 | -89.56900 | 40923 ft | 593 kts | 100° |
| 2026-04-26 21:51 | 29.04668 | -89.47762 | 40920 ft | 593 kts | 100° |
| 2026-04-26 21:51 | 29.02763 | -89.38620 | 40931 ft | 593 kts | 100° |
| 2026-04-26 21:52 | 29.00863 | -89.29516 | 40915 ft | 593 kts | 101° |
| 2026-04-26 21:52 | 28.98949 | -89.20385 | 40923 ft | 592 kts | 100° |
| 2026-04-26 21:53 | 28.97027 | -89.11266 | 40925 ft | 592 kts | 100° |
| 2026-04-26 21:53 | 28.95110 | -89.02187 | 40931 ft | 592 kts | 101° |
| 2026-04-26 21:54 | 28.93179 | -88.93072 | 40931 ft | 592 kts | 100° |
| 2026-04-26 21:54 | 28.91243 | -88.83991 | 40936 ft | 592 kts | 100° |
| 2026-04-26 21:55 | 28.89299 | -88.74879 | 40921 ft | 592 kts | 100° |
| 2026-04-26 21:55 | 28.87582 | -88.65745 | 40928 ft | 590 kts | 99° |
| 2026-04-26 21:56 | 28.86127 | -88.61332 | 40975 ft | 592 kts | 113° |
| 2026-04-26 21:56 | 28.84653 | -88.56971 | 40887 ft | 592 kts | 104° |
| 2026-04-26 21:56 | 28.82157 | -88.48019 | 40952 ft | 591 kts | 104° |
| 2026-04-26 21:57 | 28.79667 | -88.39051 | 40925 ft | 596 kts | 104° |
| 2026-04-26 21:57 | 28.77175 | -88.30123 | 40905 ft | 597 kts | 105° |
| 2026-04-26 21:58 | 28.74659 | -88.21138 | 40925 ft | 597 kts | 105° |
| 2026-04-26 21:58 | 28.72126 | -88.12118 | 40922 ft | 597 kts | 105° |
| 2026-04-26 21:59 | 28.69605 | -88.03152 | 40925 ft | 597 kts | 105° |
| 2026-04-26 21:59 | 28.67091 | -87.94235 | 40933 ft | 597 kts | 105° |
| 2026-04-26 22:00 | 28.64557 | -87.85274 | 40925 ft | 597 kts | 105° |
| 2026-04-26 22:00 | 28.62007 | -87.76303 | 40935 ft | 597 kts | 105° |
| 2026-04-26 22:01 | 28.59455 | -87.67332 | 40939 ft | 597 kts | 105° |
| 2026-04-26 22:01 | 28.56909 | -87.58406 | 40928 ft | 596 kts | 105° |
| 2026-04-26 22:02 | 28.54352 | -87.49474 | 40946 ft | 596 kts | 105° |
| 2026-04-26 22:02 | 28.51773 | -87.40494 | 40947 ft | 596 kts | 105° |
| 2026-04-26 22:03 | 28.49219 | -87.31605 | 40928 ft | 596 kts | 105° |
| 2026-04-26 22:03 | 28.46641 | -87.22684 | 40943 ft | 596 kts | 105° |
| 2026-04-26 22:04 | 28.44056 | -87.13747 | 40941 ft | 596 kts | 105° |
| 2026-04-26 22:04 | 28.41473 | -87.04843 | 40939 ft | 596 kts | 105° |
| 2026-04-26 22:05 | 28.38876 | -86.95913 | 40947 ft | 596 kts | 105° |
| 2026-04-26 22:05 | 28.36257 | -86.86941 | 40951 ft | 595 kts | 105° |
| 2026-04-26 22:06 | 28.33661 | -86.78063 | 40945 ft | 595 kts | 105° |
| 2026-04-26 22:06 | 28.31084 | -86.69204 | 40945 ft | 594 kts | 103° |
| 2026-04-26 22:07 | 28.28758 | -86.60196 | 40956 ft | 593 kts | 103° |
| 2026-04-26 22:07 | 28.26427 | -86.51268 | 40955 ft | 593 kts | 103° |
| 2026-04-26 22:08 | 28.24088 | -86.42348 | 40952 ft | 593 kts | 103° |
| 2026-04-26 22:08 | 28.21729 | -86.33366 | 40951 ft | 593 kts | 103° |
| 2026-04-26 22:09 | 28.19384 | -86.24482 | 40934 ft | 592 kts | 103° |
| 2026-04-26 22:09 | 28.17026 | -86.15571 | 40947 ft | 591 kts | 103° |
| 2026-04-26 22:10 | 28.14666 | -86.06658 | 40951 ft | 591 kts | 103° |
| 2026-04-26 22:10 | 28.12301 | -85.97768 | 40942 ft | 590 kts | 103° |
| 2026-04-26 22:11 | 28.09944 | -85.88927 | 40944 ft | 591 kts | 103° |
| 2026-04-26 22:11 | 28.07579 | -85.80083 | 40911 ft | 592 kts | 103° |
| 2026-04-26 22:12 | 28.06371 | -85.75581 | 40265 ft | 599 kts | 103° |
| 2026-04-26 22:12 | 28.05159 | -85.71058 | 39755 ft | 601 kts | 103° |
| 2026-04-26 22:12 | 28.03951 | -85.66567 | 39229 ft | 603 kts | 104° |
| 2026-04-26 22:12 | 28.02728 | -85.62032 | 38740 ft | 603 kts | 103° |
| 2026-04-26 22:13 | 28.01523 | -85.57561 | 38260 ft | 602 kts | 103° |
| 2026-04-26 22:13 | 28.00296 | -85.53007 | 37764 ft | 600 kts | 104° |
| 2026-04-26 22:13 | 27.99085 | -85.48519 | 37294 ft | 599 kts | 104° |
| 2026-04-26 22:13 | 27.97868 | -85.44039 | 36812 ft | 599 kts | 104° |
| 2026-04-26 22:14 | 27.96649 | -85.39540 | 36330 ft | 598 kts | 104° |
| 2026-04-26 22:14 | 27.95422 | -85.35039 | 35843 ft | 598 kts | 104° |
| 2026-04-26 22:14 | 27.94225 | -85.30610 | 35349 ft | 597 kts | 105° |
| 2026-04-26 22:14 | 27.93005 | -85.26147 | 34874 ft | 597 kts | 105° |
| 2026-04-26 22:15 | 27.91778 | -85.21648 | 34375 ft | 596 kts | 105° |
| 2026-04-26 22:15 | 27.90571 | -85.17237 | 33887 ft | 595 kts | 105° |
| 2026-04-26 22:15 | 27.89341 | -85.12718 | 33390 ft | 596 kts | 105° |
| 2026-04-26 22:15 | 27.88125 | -85.08293 | 32958 ft | 594 kts | 105° |
| 2026-04-26 22:16 | 27.85688 | -84.99421 | 32947 ft | 589 kts | 105° |
| 2026-04-26 22:16 | 27.83270 | -84.90631 | 32916 ft | 588 kts | 105° |
| 2026-04-26 22:17 | 27.81307 | -84.81761 | 32861 ft | 581 kts | 89° |
| 2026-04-26 22:17 | 27.81506 | -84.77247 | 32967 ft | 575 kts | 82° |
| 2026-04-26 22:17 | 27.81723 | -84.72728 | 32938 ft | 577 kts | 83° |
| 2026-04-26 22:18 | 27.81871 | -84.63698 | 32787 ft | 583 kts | 90° |
| 2026-04-26 22:18 | 27.82173 | -84.59168 | 31423 ft | 577 kts | 76° |
| 2026-04-26 22:18 | 27.82553 | -84.54721 | 30449 ft | 576 kts | 86° |
| 2026-04-26 22:19 | 27.82711 | -84.50212 | 29164 ft | 566 kts | 81° |
| 2026-04-26 22:19 | 27.82931 | -84.45866 | 27915 ft | 562 kts | 84° |
| 2026-04-26 22:19 | 27.83149 | -84.41608 | 26691 ft | 529 kts | 83° |
| 2026-04-26 22:19 | 27.83332 | -84.37605 | 25774 ft | 497 kts | 84° |
| 2026-04-26 22:20 | 27.83513 | -84.33812 | 25002 ft | 480 kts | 84° |
| 2026-04-26 22:20 | 27.83629 | -84.31296 | 24388 ft | 477 kts | 84° |
| 2026-04-26 22:20 | 27.83862 | -84.26331 | 23197 ft | 477 kts | 85° |
| 2026-04-26 22:20 | 27.84033 | -84.22621 | 22344 ft | 478 kts | 85° |
| 2026-04-26 22:21 | 27.84204 | -84.18855 | 21502 ft | 478 kts | 85° |
| 2026-04-26 22:21 | 27.84371 | -84.15148 | 20672 ft | 478 kts | 85° |
| 2026-04-26 22:21 | 27.84539 | -84.11410 | 19833 ft | 476 kts | 85° |
| 2026-04-26 22:21 | 27.84705 | -84.07725 | 19090 ft | 474 kts | 85° |
| 2026-04-26 22:22 | 27.84869 | -84.04064 | 18964 ft | 459 kts | 85° |
| 2026-04-26 22:22 | 27.85029 | -84.00506 | 18942 ft | 445 kts | 85° |
| 2026-04-26 22:22 | 27.85178 | -83.97111 | 18938 ft | 432 kts | 85° |
| 2026-04-26 22:22 | 27.85329 | -83.93751 | 18930 ft | 421 kts | 85° |
| 2026-04-26 22:23 | 27.85531 | -83.90492 | 18919 ft | 410 kts | 79° |
| 2026-04-26 22:23 | 27.85971 | -83.87353 | 18921 ft | 402 kts | 85° |
| 2026-04-26 22:23 | 27.86075 | -83.84246 | 18933 ft | 395 kts | 83° |
| 2026-04-26 22:23 | 27.86304 | -83.81133 | 18951 ft | 400 kts | 83° |
| 2026-04-26 22:24 | 27.86543 | -83.78028 | 18953 ft | 405 kts | 83° |
| 2026-04-26 22:24 | 27.86801 | -83.74817 | 18947 ft | 410 kts | 83° |
| 2026-04-26 22:24 | 27.87059 | -83.71609 | 18949 ft | 414 kts | 83° |
| 2026-04-26 22:24 | 27.87321 | -83.68357 | 18950 ft | 418 kts | 83° |
| 2026-04-26 22:25 | 27.87584 | -83.65066 | 18947 ft | 421 kts | 83° |
| 2026-04-26 22:25 | 27.87851 | -83.61760 | 18948 ft | 424 kts | 83° |
| 2026-04-26 22:25 | 27.88114 | -83.58453 | 18948 ft | 427 kts | 82° |
| 2026-04-26 22:25 | 27.88384 | -83.55057 | 18387 ft | 441 kts | 83° |
| 2026-04-26 22:26 | 27.88654 | -83.51637 | 17652 ft | 437 kts | 83° |
| 2026-04-26 22:26 | 27.88922 | -83.48264 | 16903 ft | 434 kts | 83° |
| 2026-04-26 22:26 | 27.89186 | -83.44911 | 16156 ft | 430 kts | 83° |
| 2026-04-26 22:26 | 27.89447 | -83.41571 | 15406 ft | 426 kts | 82° |
| 2026-04-26 22:27 | 27.89707 | -83.38264 | 14655 ft | 422 kts | 82° |
| 2026-04-26 22:27 | 27.89961 | -83.35014 | 13760 ft | 398 kts | 82° |
| 2026-04-26 22:27 | 27.90191 | -83.32066 | 12962 ft | 366 kts | 82° |
| 2026-04-26 22:27 | 27.90410 | -83.29318 | 12170 ft | 341 kts | 81° |
| 2026-04-26 22:28 | 27.90613 | -83.26749 | 11391 ft | 324 kts | 81° |
| 2026-04-26 22:28 | 27.90809 | -83.24274 | 10614 ft | 310 kts | 81° |
| 2026-04-26 22:28 | 27.90991 | -83.21896 | 10138 ft | 299 kts | 81° |
| 2026-04-26 22:28 | 27.91174 | -83.19569 | 9598 ft | 295 kts | 81° |
| 2026-04-26 22:29 | 27.91354 | -83.17286 | 9092 ft | 290 kts | 81° |
| 2026-04-26 22:29 | 27.91532 | -83.15081 | 8999 ft | 278 kts | 81° |
| 2026-04-26 22:29 | 27.91706 | -83.12937 | 8978 ft | 266 kts | 81° |
| 2026-04-26 22:29 | 27.91869 | -83.10904 | 8972 ft | 255 kts | 79° |
| 2026-04-26 22:30 | 27.92027 | -83.08974 | 8970 ft | 243 kts | 79° |
| 2026-04-26 22:30 | 27.92186 | -83.07073 | 8979 ft | 240 kts | 79° |
| 2026-04-26 22:30 | 27.92341 | -83.05193 | 8993 ft | 244 kts | 79° |
| 2026-04-26 22:30 | 27.92499 | -83.03281 | 8996 ft | 248 kts | 79° |
| 2026-04-26 22:31 | 27.92676 | -83.01334 | 8996 ft | 251 kts | 78° |
| 2026-04-26 22:31 | 27.92866 | -82.99369 | 8957 ft | 251 kts | 78° |
| 2026-04-26 22:31 | 27.93055 | -82.97380 | 8993 ft | 253 kts | 78° |
| 2026-04-26 22:31 | 27.93249 | -82.95391 | 8980 ft | 256 kts | 78° |
| 2026-04-26 22:32 | 27.93442 | -82.93415 | 8995 ft | 258 kts | 78° |
| 2026-04-26 22:32 | 27.93638 | -82.91379 | 8996 ft | 260 kts | 78° |
| 2026-04-26 22:32 | 27.93838 | -82.89351 | 8997 ft | 262 kts | 79° |
| 2026-04-26 22:32 | 27.94034 | -82.87308 | 8992 ft | 259 kts | 79° |
| 2026-04-26 22:33 | 27.94226 | -82.85311 | 8986 ft | 255 kts | 78° |
| 2026-04-26 22:33 | 27.94604 | -82.81402 | 8982 ft | 244 kts | 78° |
| 2026-04-26 22:33 | 27.94789 | -82.79498 | 8982 ft | 240 kts | 78° |
| 2026-04-26 22:34 | 27.94971 | -82.77629 | 8982 ft | 236 kts | 78° |
| 2026-04-26 22:34 | 27.95149 | -82.75813 | 8984 ft | 232 kts | 77° |
| 2026-04-26 22:34 | 27.95326 | -82.74029 | 8983 ft | 228 kts | 77° |
| 2026-04-26 22:34 | 27.95504 | -82.72247 | 8977 ft | 224 kts | 77° |
| 2026-04-26 22:35 | 27.95678 | -82.70513 | 8861 ft | 228 kts | 77° |
| 2026-04-26 22:35 | 27.95868 | -82.68692 | 8534 ft | 238 kts | 78° |
| 2026-04-26 22:35 | 27.96064 | -82.66805 | 8205 ft | 242 kts | 78° |
| 2026-04-26 22:35 | 27.96255 | -82.64907 | 7878 ft | 244 kts | 78° |
| 2026-04-26 22:36 | 27.96444 | -82.63021 | 7539 ft | 240 kts | 79° |
| 2026-04-26 22:36 | 27.96629 | -82.61172 | 7194 ft | 236 kts | 79° |
| 2026-04-26 22:36 | 27.96813 | -82.59349 | 6987 ft | 225 kts | 79° |
| 2026-04-26 22:36 | 27.96981 | -82.57619 | 6966 ft | 219 kts | 78° |
| 2026-04-26 22:37 | 27.97149 | -82.55917 | 6962 ft | 214 kts | 78° |
| 2026-04-26 22:37 | 27.97313 | -82.54269 | 6959 ft | 210 kts | 79° |
| 2026-04-26 22:37 | 27.97484 | -82.52589 | 6977 ft | 217 kts | 79° |
| 2026-04-26 22:37 | 27.97660 | -82.50872 | 6985 ft | 225 kts | 79° |
| 2026-04-26 22:38 | 27.97844 | -82.49082 | 6982 ft | 229 kts | 79° |
| 2026-04-26 22:38 | 27.98025 | -82.47281 | 6977 ft | 232 kts | 79° |
| 2026-04-26 22:38 | 27.98208 | -82.45482 | 6971 ft | 233 kts | 79° |
| 2026-04-26 22:38 | 27.98394 | -82.43627 | 6970 ft | 233 kts | 79° |
| 2026-04-26 22:39 | 27.98580 | -82.41808 | 6970 ft | 234 kts | 79° |
| 2026-04-26 22:39 | 27.98765 | -82.39993 | 6969 ft | 234 kts | 79° |
| 2026-04-26 22:39 | 27.98950 | -82.38163 | 6982 ft | 233 kts | 79° |
| 2026-04-26 22:39 | 27.99142 | -82.36307 | 6603 ft | 242 kts | 79° |
| 2026-04-26 22:40 | 27.99335 | -82.34465 | 6272 ft | 226 kts | 79° |
| 2026-04-26 22:40 | 27.99509 | -82.32758 | 5989 ft | 212 kts | 79° |
| 2026-04-26 22:40 | 27.99680 | -82.31120 | 5566 ft | 209 kts | 79° |
| 2026-04-26 22:40 | 27.99855 | -82.29489 | 5069 ft | 209 kts | 80° |
| 2026-04-26 22:41 | 28.00027 | -82.27859 | 4578 ft | 210 kts | 79° |
| 2026-04-26 22:41 | 28.00195 | -82.26229 | 4090 ft | 210 kts | 79° |
| 2026-04-26 22:41 | 28.00367 | -82.24604 | 3608 ft | 211 kts | 79° |
| 2026-04-26 22:41 | 28.00543 | -82.22941 | 3130 ft | 210 kts | 79° |
| 2026-04-26 22:42 | 28.00710 | -82.21374 | 2993 ft | 198 kts | 79° |
| 2026-04-26 22:42 | 28.00866 | -82.19849 | 2988 ft | 191 kts | 79° |
| 2026-04-26 22:42 | 28.01021 | -82.18362 | 3001 ft | 191 kts | 79° |
| 2026-04-26 22:42 | 28.01178 | -82.16837 | 3002 ft | 193 kts | 78° |
| 2026-04-26 22:43 | 28.01438 | -82.15344 | 3003 ft | 195 kts | 73° |
| 2026-04-26 22:43 | 28.01740 | -82.13831 | 3002 ft | 198 kts | 73° |
| 2026-04-26 22:43 | 28.02053 | -82.12300 | 2999 ft | 201 kts | 75° |
| 2026-04-26 22:43 | 28.02378 | -82.10757 | 2996 ft | 204 kts | 73° |
| 2026-04-26 22:44 | 28.02709 | -82.09185 | 2999 ft | 206 kts | 73° |
| 2026-04-26 22:44 | 28.03037 | -82.07597 | 2994 ft | 208 kts | 73° |
| 2026-04-26 22:44 | 28.03368 | -82.06001 | 2995 ft | 210 kts | 73° |
| 2026-04-26 22:44 | 28.03698 | -82.04386 | 2995 ft | 212 kts | 73° |
| 2026-04-26 22:45 | 28.04042 | -82.02744 | 2995 ft | 214 kts | 73° |
| 2026-04-26 22:45 | 28.04403 | -82.01056 | 3009 ft | 226 kts | 73° |
| 2026-04-26 22:45 | 28.04763 | -81.99313 | 2995 ft | 229 kts | 73° |
| 2026-04-26 22:45 | 28.05134 | -81.97557 | 2992 ft | 229 kts | 73° |
| 2026-04-26 22:46 | 28.05504 | -81.95797 | 2987 ft | 226 kts | 73° |
| 2026-04-26 22:46 | 28.05861 | -81.94091 | 2988 ft | 221 kts | 73° |
| 2026-04-26 22:46 | 28.06207 | -81.92426 | 2983 ft | 218 kts | 73° |
| 2026-04-26 22:46 | 28.06557 | -81.90753 | 2986 ft | 214 kts | 73° |
| 2026-04-26 22:47 | 28.06900 | -81.89120 | 2982 ft | 211 kts | 73° |
| 2026-04-26 22:47 | 28.07229 | -81.87530 | 2980 ft | 208 kts | 73° |
| 2026-04-26 22:47 | 28.07559 | -81.85953 | 2982 ft | 206 kts | 73° |
| 2026-04-26 22:47 | 28.07886 | -81.84383 | 2984 ft | 203 kts | 72° |
| 2026-04-26 22:48 | 28.08204 | -81.82821 | 2984 ft | 201 kts | 77° |
| 2026-04-26 22:48 | 28.08003 | -81.81275 | 2971 ft | 203 kts | 120° |
| 2026-04-26 22:48 | 28.06953 | -81.80273 | 2981 ft | 198 kts | 164° |
| 2026-04-26 22:48 | 28.05623 | -81.80200 | 3006 ft | 190 kts | 188° |
| 2026-04-26 22:49 | 28.04297 | -81.80289 | 2993 ft | 191 kts | 183° |
| 2026-04-26 22:49 | 28.02952 | -81.80306 | 2985 ft | 191 kts | 182° |
| 2026-04-26 22:49 | 28.01617 | -81.80310 | 2984 ft | 191 kts | 182° |
| 2026-04-26 22:49 | 28.00293 | -81.80368 | 2970 ft | 190 kts | 197° |
| 2026-04-26 22:50 | 27.99244 | -81.81159 | 2983 ft | 177 kts | 242° |
| 2026-04-26 22:50 | 27.98961 | -81.82453 | 3000 ft | 170 kts | 273° |
| 2026-04-26 22:50 | 27.98972 | -81.83804 | 2909 ft | 174 kts | 270° |
| 2026-04-26 22:50 | 27.98952 | -81.85159 | 2705 ft | 173 kts | 271° |
| 2026-04-26 22:51 | 27.98945 | -81.86509 | 2490 ft | 171 kts | 272° |
| 2026-04-26 22:51 | 27.98946 | -81.87854 | 2267 ft | 169 kts | 273° |
| 2026-04-26 22:51 | 27.98950 | -81.89167 | 2052 ft | 165 kts | 273° |
| 2026-04-26 22:51 | 27.98945 | -81.90447 | 1841 ft | 160 kts | 272° |
| 2026-04-26 22:52 | 27.98941 | -81.91667 | 1701 ft | 144 kts | 272° |
| 2026-04-26 22:52 | 27.98934 | -81.92750 | 1477 ft | 132 kts | 274° |
| 2026-04-26 22:52 | 27.98934 | -81.93733 | 1286 ft | 121 kts | 273° |
| 2026-04-26 22:52 | 27.98938 | -81.94694 | 1138 ft | 124 kts | 272° |
| 2026-04-26 22:53 | 27.98935 | -81.95700 | 987 ft | 128 kts | 272° |
| 2026-04-26 22:53 | 27.98937 | -81.96710 | 829 ft | 132 kts | 271° |
| 2026-04-26 22:53 | 27.98932 | -81.97765 | 658 ft | 133 kts | 272° |
| 2026-04-26 22:53 | 27.98931 | -81.98786 | 485 ft | 126 kts | 271° |
| 2026-04-26 22:54 | 27.98932 | -81.99719 | 286 ft | 117 kts | 271° |
| 2026-04-26 22:54 | 27.98923 | -82.00644 | 162 ft | 117 kts | 271° |
| 2026-04-26 22:54 | 27.98945 | -82.01363 | 135 ft | 60 kts | 277° |
| 2026-04-26 22:54 | 27.98925 | -82.01811 | 132 ft | 52 kts | 272° |
| 2026-04-26 22:55 | 27.98921 | -82.02200 | 130 ft | 47 kts | 264° |
| 2026-04-26 22:55 | 27.98939 | -82.02544 | 126 ft | 41 kts | 271° |
| 2026-04-26 22:55 | 27.98911 | -82.02840 | 125 ft | 28 kts | 258° |
| 2026-04-26 22:55 | 27.98834 | -82.02895 | 125 ft | 7 kts | 118° |